Disclaimer

Please do not use the information listed here in-flight or in-navigation, as they are not provided to us by the airports but are provided by volunteers, so they might be outdated.

Search


Regions


Airport information page

No radio frequency information is available.

Airport informations:
Latitude: 03° 22' 04.06" S
Longitude: 036° 38' 00.00" E
Elevation: 4550 feet - 1387 meters
Operating hours: N/A
Operating agency: Civil government, landing fees and diplomatic clearance may be required
Timezone: N/A
Fuel: 100/130 MIL Spec, low lead, aviation gasoline (BLUE)

Runway information:
09/27 - 5377 x 105 feet< - >1639 x 32 meters

Recent METARs:
HTAR 160200Z 00000KT 9999 BKN018 16/15 Q1019 NOSIG
HTAR 160200Z 00000KT 9999 BKN018 16/15 Q1019 NOSIG

Airport on the map: